Time;durP1;ratioP1;P1;durP2;ratioP2;P2;SDS_P1;SDS_P2;PMS_P1;PMS_P2;Temp;Humidity;BMP_temperature;BMP_pressure;BME280_temperature;BME280_humidity;BME280_pressure;Samples;Min_cycle;Max_cycle;Signal;HPM_P1;HPM_P2
2021/09/06 00:01:29;;;;;;;;;9.60;8.00;;;;;15.91;50.54;99698.97;6165329;28;96832;-66
2021/09/06 00:04:34;;;;;;;;;9.00;8.00;;;;;15.89;50.58;99701.06;6144371;28;97836;-66
2021/09/06 00:07:37;;;;;;;;;10.00;9.00;;;;;15.89;50.66;99698.34;6164860;28;96691;-66
2021/09/06 00:10:43;;;;;;;;;8.00;8.00;;;;;15.91;50.41;99695.41;6180170;28;96632;-66
2021/09/06 00:13:49;;;;;;;;;10.00;9.60;;;;;15.92;50.27;99697.06;6147433;28;96677;-66
2021/09/06 00:16:52;;;;;;;;;8.50;8.00;;;;;15.88;50.38;99687.72;6145809;28;96914;-66
2021/09/06 00:19:56;;;;;;;;;10.00;9.00;;;;;15.86;50.29;99695.28;6146130;28;97141;-66
2021/09/06 00:22:59;;;;;;;;;8.00;8.00;;;;;15.83;50.23;99696.56;6168416;28;96702;-67
2021/09/06 00:26:05;;;;;;;;;9.20;9.00;;;;;15.86;49.96;99698.84;6165463;28;97606;-65
2021/09/06 00:29:08;;;;;;;;;7.80;7.00;;;;;15.89;49.93;99690.19;6147937;28;97127;-64
2021/09/06 00:32:11;;;;;;;;;9.00;8.00;;;;;15.89;49.88;99701.06;6129640;28;97335;-66
2021/09/06 00:35:15;;;;;;;;;11.00;9.00;;;;;15.85;49.84;99696.34;6175281;28;96686;-66
2021/09/06 00:38:20;;;;;;;;;11.00;10.25;;;;;15.85;49.96;99696.34;6142421;28;97800;-66
2021/09/06 00:41:25;;;;;;;;;10.00;10.00;;;;;15.83;50.16;99701.22;6147201;28;97620;-66
2021/09/06 00:44:28;;;;;;;;;10.50;9.00;;;;;15.79;50.31;99694.56;6154593;28;96705;-66
2021/09/06 00:47:34;;;;;;;;;11.40;10.00;;;;;15.81;50.24;99700.59;6128596;28;97306;-66
2021/09/06 00:50:37;;;;;;;;;9.00;9.00;;;;;15.64;50.28;99681.44;6147477;28;96632;-65
2021/09/06 00:53:41;;;;;;;;;10.20;10.00;;;;;15.76;50.41;99697.75;6144506;28;96910;-65
2021/09/06 00:56:46;;;;;;;;;10.00;10.00;;;;;15.72;50.13;99700.13;6140308;28;97751;-64
2021/09/06 00:59:50;;;;;;;;;13.00;11.50;;;;;15.61;50.08;99700.94;6168146;28;96834;-65
2021/09/06 01:02:53;;;;;;;;;10.00;9.50;;;;;15.58;50.42;99691.38;6170713;28;97540;-65
2021/09/06 01:05:58;;;;;;;;;11.00;11.00;;;;;15.59;50.55;99698.44;6172524;28;97554;-67
2021/09/06 01:09:35;;;;;;;;;10.00;8.20;;;;;15.57;50.82;99694.31;6154051;28;97254;-65
2021/09/06 01:13:00;;;;;;;;;11.00;10.00;;;;;15.55;50.76;99691.00;6161413;28;96862;-65
2021/09/06 01:16:10;;;;;;;;;12.00;10.00;;;;;15.51;50.76;99690.66;6131944;28;97839;-65
2021/09/06 01:19:15;;;;;;;;;10.50;10.00;;;;;15.49;51.05;99684.56;6153078;28;97527;-66
2021/09/06 01:22:20;;;;;;;;;11.00;10.40;;;;;15.47;50.76;99694.03;6155223;28;96883;-65
2021/09/06 01:25:44;;;;;;;;;11.60;10.00;;;;;15.45;50.90;99690.72;6158780;28;97600;-66
2021/09/06 01:28:50;;;;;;;;;10.00;10.00;;;;;15.42;50.94;99686.59;6140079;28;97899;-65
2021/09/06 01:31:54;;;;;;;;;11.00;10.00;;;;;15.26;51.16;99676.38;6157981;28;97361;-65
2021/09/06 01:34:57;;;;;;;;;12.00;11.00;;;;;15.32;51.24;99686.31;6163934;28;97535;-65
2021/09/06 01:38:00;;;;;;;;;10.00;9.00;;;;;15.33;51.38;99690.69;6182685;28;96845;-65
2021/09/06 01:41:04;;;;;;;;;10.75;9.75;;;;;15.32;51.53;99696.38;6155633;28;96532;-66
2021/09/06 01:44:09;;;;;;;;;10.00;9.00;;;;;15.27;51.49;99688.06;6159406;28;96679;-66
2021/09/06 01:47:13;;;;;;;;;11.00;10.40;;;;;15.25;51.71;99691.03;6161866;28;97564;-66
2021/09/06 01:50:16;;;;;;;;;12.00;11.00;;;;;15.28;51.65;99687.84;6172442;28;97401;-66
2021/09/06 01:53:31;;;;;;;;;10.00;9.00;;;;;15.29;51.57;99696.84;6175514;28;97041;-65
2021/09/06 01:56:37;;;;;;;;;12.00;11.00;;;;;15.26;51.49;99698.13;6184928;28;96778;-65
2021/09/06 01:59:45;;;;;;;;;10.40;10.20;;;;;15.19;51.88;99702.84;6172740;28;97436;-66
2021/09/06 02:02:49;;;;;;;;;10.00;9.80;;;;;15.17;51.87;99707.66;6179752;28;96870;-66
2021/09/06 02:05:59;;;;;;;;;9.00;9.00;;;;;15.17;51.69;99704.94;6148430;28;97265;-66
2021/09/06 02:09:18;;;;;;;;;11.40;10.60;;;;;15.09;52.17;99708.81;6138366;28;97272;-66
2021/09/06 02:12:21;;;;;;;;;10.00;9.00;;;;;15.05;51.83;99709.53;6132482;28;97821;-66
2021/09/06 02:15:27;;;;;;;;;11.00;10.00;;;;;14.91;52.08;99694.44;6156267;28;96709;-65
2021/09/06 02:18:30;;;;;;;;;10.80;9.80;;;;;14.99;52.00;99707.72;6157777;28;97445;-66
2021/09/06 02:21:34;;;;;;;;;9.00;8.33;;;;;14.90;52.02;99715.38;6181610;28;97456;-65
2021/09/06 02:24:38;;;;;;;;;12.00;11.00;;;;;14.86;52.06;99708.72;6156170;28;96807;-66
2021/09/06 02:27:53;;;;;;;;;12.00;10.00;;;;;14.76;52.17;99707.63;6177976;28;96682;-66
2021/09/06 02:30:58;;;;;;;;;9.00;8.80;;;;;14.67;52.45;99709.81;6139199;28;98677;-66
2021/09/06 02:34:22;;;;;;;;;14.00;13.00;;;;;14.55;52.84;99706.22;6155545;28;99356;-65
2021/09/06 02:37:26;;;;;;;;;8.75;8.75;;;;;14.51;52.75;99715.88;6171863;28;96688;-66
2021/09/06 02:40:29;;;;;;;;;10.00;9.00;;;;;14.44;52.97;99715.94;6188364;28;97127;-66
2021/09/06 02:43:32;;;;;;;;;11.50;10.50;;;;;14.38;52.65;99705.97;6182827;28;97496;-66
2021/09/06 02:46:38;;;;;;;;;10.00;9.00;;;;;14.23;52.98;99713.63;6187381;28;96953;-65
2021/09/06 02:49:42;;;;;;;;;9.00;9.00;;;;;14.22;53.07;99720.13;6178424;28;97394;-65
2021/09/06 02:52:53;;;;;;;;;10.00;9.00;;;;;14.20;53.16;99709.50;6148814;28;96745;-67
2021/09/06 02:55:56;;;;;;;;;10.50;10.00;;;;;14.20;52.89;99720.34;6148347;28;97013;-65
2021/09/06 02:59:01;;;;;;;;;11.00;10.00;;;;;14.17;53.00;99717.25;6168060;28;96697;-67
2021/09/06 03:02:05;;;;;;;;;11.00;10.00;;;;;14.08;53.22;99714.00;6167395;28;97507;-67
2021/09/06 03:05:11;;;;;;;;;9.00;9.00;;;;;14.00;53.11;99710.75;6173779;28;97591;-66
2021/09/06 03:08:20;;;;;;;;;9.40;8.00;;;;;13.37;53.23;99618.81;6172237;28;97418;-66
2021/09/06 03:11:25;;;;;;;;;9.00;8.60;;;;;13.89;53.20;99717.72;6171228;28;97073;-65
2021/09/06 03:14:31;;;;;;;;;7.00;7.00;;;;;13.84;53.30;99712.16;6185630;28;97441;-66
2021/09/06 03:17:37;;;;;;;;;8.00;8.00;;;;;13.84;53.45;99717.56;6147411;28;96699;-66
2021/09/06 03:20:43;;;;;;;;;13.00;11.00;;;;;13.86;53.18;99715.47;6180120;28;96787;-65
2021/09/06 03:23:48;;;;;;;;;9.00;9.00;;;;;13.84;53.55;99710.28;6125759;28;97810;-65
2021/09/06 05:31:28;;;;;;;;;11.00;10.50;;;;;15.36;52.10;99747.28;6165696;28;96472;-62
2021/09/06 05:34:33;;;;;;;;;11.00;10.00;;;;;15.53;51.79;99748.31;6144175;28;98131;-61
2021/09/06 05:37:37;;;;;;;;;11.00;10.20;;;;;15.67;51.04;99751.66;6161722;28;97390;-62
2021/09/06 05:40:41;;;;;;;;;11.60;10.60;;;;;15.82;50.78;99748.50;6151004;28;97399;-61
2021/09/06 05:43:48;;;;;;;;;13.00;10.00;;;;;16.00;50.20;99753.81;6109848;28;99530;-61
2021/09/06 05:46:54;;;;;;;;;12.00;10.40;;;;;16.06;49.97;99749.31;6140039;28;96637;-62
2021/09/06 05:49:57;;;;;;;;;10.00;9.00;;;;;16.00;49.74;99753.81;6133771;28;97361;-61
2021/09/06 05:53:01;;;;;;;;;11.40;10.00;;;;;16.03;49.91;99746.00;6134605;28;97285;-61
2021/09/06 05:56:05;;;;;;;;;8.00;8.00;;;;;16.04;49.68;99749.56;6125834;28;96835;-61
2021/09/06 05:59:08;;;;;;;;;9.60;9.00;;;;;16.15;49.00;99750.63;6144338;28;97526;-63
2021/09/06 06:02:14;;;;;;;;;11.00;10.00;;;;;16.16;49.55;99755.84;6145320;28;97417;-62
2021/09/06 06:05:19;;;;;;;;;12.00;11.00;;;;;16.35;49.55;99741.03;6147667;28;98138;-60
2021/09/06 06:08:25;;;;;;;;;11.00;9.40;;;;;16.50;48.78;99750.59;6148428;28;97374;-62
2021/09/06 06:11:30;;;;;;;;;13.00;11.00;;;;;16.68;49.09;99754.03;6138613;28;97533;-62
2021/09/06 06:14:33;;;;;;;;;11.00;10.00;;;;;16.92;49.02;99753.94;6144203;28;97505;-61
2021/09/06 06:17:42;;;;;;;;;12.00;10.60;;;;;17.16;48.22;99756.34;6139570;28;97542;-61
2021/09/06 06:20:46;;;;;;;;;11.50;11.25;;;;;17.46;48.32;99753.38;6125251;28;97474;-62
2021/09/06 06:24:05;;;;;;;;;10.75;10.00;;;;;17.75;47.61;99748.72;6123375;28;96767;-60
2021/09/06 06:27:15;;;;;;;;;11.00;11.00;;;;;18.03;46.99;99743.16;6123489;28;96595;-61
2021/09/06 06:30:20;;;;;;;;;9.40;9.40;;;;;18.37;46.53;99743.13;6145408;28;96763;-62
2021/09/06 06:33:29;;;;;;;;;12.00;12.00;;;;;18.63;45.50;99747.06;6161056;28;96647;-62
2021/09/06 06:36:37;;;;;;;;;10.00;10.00;;;;;18.83;44.99;99756.34;6152785;28;97537;-62
2021/09/06 06:39:52;;;;;;;;;10.00;9.00;;;;;19.12;44.42;99750.66;6160514;28;96892;-62
2021/09/06 06:42:55;;;;;;;;;9.00;8.50;;;;;19.31;43.24;99763.72;6168235;28;96803;-61
2021/09/06 06:46:00;;;;;;;;;10.00;9.80;;;;;19.55;43.42;99764.28;6147148;28;97518;-63
2021/09/06 06:49:07;;;;;;;;;10.40;10.00;;;;;19.59;42.54;99765.44;6165319;28;96676;-61
2021/09/06 06:52:11;;;;;;;;;9.00;9.00;;;;;19.52;42.26;99774.91;6147506;28;96786;-62
2021/09/06 06:55:14;;;;;;;;;10.00;10.00;;;;;19.64;41.91;99773.69;6154222;28;98044;-60
2021/09/06 06:58:18;;;;;;;;;10.20;10.00;;;;;19.76;42.45;99782.53;6172000;28;97769;-62
2021/09/06 07:01:22;;;;;;;;;12.00;12.00;;;;;19.78;42.64;99776.81;6179376;28;97936;-62
2021/09/06 07:04:29;;;;;;;;;15.00;13.00;;;;;19.90;42.73;99789.22;6149168;28;97070;-62
2021/09/06 07:07:33;;;;;;;;;11.00;10.00;;;;;19.89;42.04;99784.84;6187166;28;96618;-62
2021/09/06 07:10:36;;;;;;;;;11.00;9.75;;;;;20.06;42.25;99789.34;6189049;28;97012;-62
2021/09/06 07:13:40;;;;;;;;;13.40;12.00;;;;;20.13;41.86;99782.59;6170709;28;97427;-62
2021/09/06 07:16:44;;;;;;;;;10.50;10.00;;;;;20.49;42.19;99799.28;6178619;28;96692;-60
2021/09/06 07:19:50;;;;;;;;;15.00;12.00;;;;;20.76;41.40;99800.00;6167119;28;97760;-62
2021/09/06 07:22:54;;;;;;;;;11.60;9.60;;;;;21.02;41.35;99812.72;6140416;28;98449;-61
2021/09/06 07:25:57;;;;;;;;;12.00;11.50;;;;;21.33;40.92;99805.47;6129096;28;99710;-62
2021/09/06 07:29:01;;;;;;;;;11.00;11.00;;;;;21.70;40.97;99816.25;6145278;28;97426;-60
2021/09/06 07:32:05;;;;;;;;;11.25;10.25;;;;;22.15;40.22;99814.66;6149318;28;98222;-60
2021/09/06 07:35:10;;;;;;;;;15.00;14.00;;;;;22.44;39.31;99816.56;6134479;28;98520;-60
2021/09/06 07:38:14;;;;;;;;;11.40;11.40;;;;;22.83;38.66;99818.72;6146183;28;97505;-61
2021/09/06 07:41:17;;;;;;;;;11.00;11.00;;;;;23.08;38.33;99813.13;6145149;28;98523;-60
2021/09/06 07:44:21;;;;;;;;;13.00;12.75;;;;;23.51;37.48;99819.84;6168138;28;96625;-62
2021/09/06 07:47:24;;;;;;;;;11.25;10.00;;;;;23.78;36.32;99818.59;6146321;28;96571;-62
2021/09/06 07:50:29;;;;;;;;;14.00;12.40;;;;;24.17;36.38;99816.66;6145805;28;97259;-61
2021/09/06 07:53:33;;;;;;;;;11.75;10.00;;;;;24.46;35.62;99819.44;6163592;28;97296;-62
2021/09/06 07:56:51;;;;;;;;;11.00;10.00;;;;;24.78;34.98;99824.34;6148063;28;97571;-64
2021/09/06 07:59:54;;;;;;;;;11.00;9.60;;;;;25.10;34.10;99818.22;6127306;28;96651;-61
2021/09/06 08:02:58;;;;;;;;;9.00;8.00;;;;;25.25;32.33;99827.13;6138871;28;97684;-62
2021/09/06 08:06:08;;;;;;;;;8.00;7.00;;;;;25.14;33.56;99830.31;6127035;28;100080;-63
2021/09/06 08:09:11;;;;;;;;;11.20;10.60;;;;;25.33;33.28;99828.41;6110870;28;97754;-61
2021/09/06 08:12:14;;;;;;;;;10.20;9.00;;;;;25.61;33.17;99826.69;6152280;28;97368;-62
2021/09/06 08:15:18;;;;;;;;;9.00;9.00;;;;;25.79;32.86;99817.59;6129663;28;97018;-62
2021/09/06 08:18:21;;;;;;;;;10.00;8.00;;;;;26.25;32.26;99823.22;6147343;28;96540;-63
2021/09/06 08:21:29;;;;;;;;;10.00;8.40;;;;;26.59;31.87;99815.41;6146316;28;97471;-64
2021/09/06 08:24:32;;;;;;;;;7.40;7.00;;;;;26.92;31.13;99815.41;6147650;28;96966;-62
2021/09/06 08:27:37;;;;;;;;;8.00;8.00;;;;;27.08;29.06;99823.06;6146847;28;96688;-63
2021/09/06 08:30:40;;;;;;;;;8.00;7.00;;;;;27.35;30.01;99818.66;6147454;28;97509;-63
2021/09/06 08:33:45;;;;;;;;;10.00;8.25;;;;;27.54;29.84;99824.91;6148057;28;96622;-62
2021/09/06 08:36:49;;;;;;;;;8.00;8.00;;;;;27.77;30.00;99828.53;6128718;28;96898;-63
2021/09/06 08:39:53;;;;;;;;;9.00;8.00;;;;;28.14;28.98;99817.16;6147822;28;97600;-62
2021/09/06 08:42:57;;;;;;;;;7.60;7.60;;;;;28.31;28.29;99827.53;6146263;28;97412;-64
2021/09/06 08:46:01;;;;;;;;;7.00;7.00;;;;;28.27;27.91;99823.75;6147149;28;96684;-63
2021/09/06 08:49:05;;;;;;;;;6.40;6.40;;;;;28.28;26.86;99840.09;6129636;28;97862;-63
2021/09/06 08:52:10;;;;;;;;;6.00;6.00;;;;;28.39;27.06;99829.56;6145605;28;96748;-63
2021/09/06 08:55:13;;;;;;;;;7.40;6.40;;;;;28.31;27.26;99839.44;6146602;28;97407;-63
2021/09/06 08:58:20;;;;;;;;;7.00;6.00;;;;;28.17;26.30;99829.56;6145651;28;97106;-63
2021/09/06 09:01:23;;;;;;;;;7.40;6.00;;;;;28.23;27.22;99834.66;6150680;28;97422;-63
2021/09/06 09:04:59;;;;;;;;;5.00;5.00;;;;;28.32;26.43;99829.16;6146992;28;96479;-62
2021/09/06 09:08:22;;;;;;;;;7.00;7.00;;;;;28.39;25.86;99826.78;6129882;28;99750;-62
2021/09/06 09:12:01;;;;;;;;;3.50;3.00;;;;;28.15;26.48;99827.09;6128047;28;100108;-63
2021/09/06 09:15:21;;;;;;;;;6.00;6.00;;;;;28.18;26.48;99815.38;6153932;28;96444;-63
2021/09/06 09:19:05;;;;;;;;;5.60;5.60;;;;;28.57;25.75;99816.59;6030429;28;97160;-64
2021/09/06 09:22:19;;;;;;;;;6.00;6.00;;;;;28.80;25.20;99819.03;6157150;28;96636;-63
2021/09/06 09:25:46;;;;;;;;;4.00;4.00;;;;;29.22;26.03;99816.75;6162155;28;97452;-63
2021/09/06 09:29:18;;;;;;;;;6.00;6.00;;;;;28.77;25.25;99818.84;6162505;28;97476;-62
2021/09/06 09:33:09;;;;;;;;;4.00;3.60;;;;;28.86;24.99;99811.38;6144084;28;97148;-63
2021/09/06 09:36:47;;;;;;;;;5.00;4.50;;;;;29.05;25.47;99811.13;6130348;28;96718;-63
2021/09/06 09:39:54;;;;;;;;;3.20;3.00;;;;;29.34;24.78;99810.56;6164087;28;96541;-63
2021/09/06 09:42:59;;;;;;;;;4.33;4.00;;;;;28.86;23.76;99816.94;6166413;28;97810;-64
2021/09/06 09:46:05;;;;;;;;;5.00;4.00;;;;;28.67;24.76;99813.56;6164876;28;97441;-64
2021/09/06 09:49:16;;;;;;;;;4.00;4.00;;;;;29.07;24.56;99809.69;6146359;28;97099;-62
2021/09/06 09:52:22;;;;;;;;;4.40;4.40;;;;;29.52;23.99;99804.72;6162366;28;96428;-61
2021/09/06 09:55:31;;;;;;;;;4.00;4.00;;;;;29.08;22.41;99810.47;6163947;28;97461;-63
2021/09/06 09:58:38;;;;;;;;;3.00;3.00;;;;;29.13;23.50;99805.59;6164831;28;97262;-62
2021/09/06 10:01:46;;;;;;;;;4.00;4.00;;;;;29.44;23.68;99797.22;6147947;28;97767;-62
2021/09/06 10:04:54;;;;;;;;;4.00;4.00;;;;;30.10;22.93;99793.16;6171200;28;96973;-61
2021/09/06 10:08:00;;;;;;;;;4.00;4.00;;;;;29.81;22.39;99797.75;6169829;28;97852;-61
2021/09/06 10:11:11;;;;;;;;;4.00;4.00;;;;;30.07;22.86;99771.56;6171980;28;96995;-62
2021/09/06 10:14:20;;;;;;;;;3.25;3.25;;;;;29.97;21.60;99777.47;6150356;28;97422;-63
2021/09/06 10:17:37;;;;;;;;;4.00;4.00;;;;;29.76;22.97;99775.66;6150535;28;96713;-62
2021/09/06 10:20:41;;;;;;;;;4.50;4.00;;;;;30.36;23.47;99781.97;6167359;28;97909;-62
2021/09/06 10:23:48;;;;;;;;;3.50;3.25;;;;;30.91;22.71;99762.50;6155488;28;96789;-62
2021/09/06 10:27:04;;;;;;;;;4.00;3.50;;;;;31.37;21.41;99769.13;6176169;28;96515;-62
2021/09/06 10:30:14;;;;;;;;;4.00;3.60;;;;;31.52;21.59;99762.94;6172378;28;96622;-62
2021/09/06 10:33:27;;;;;;;;;5.00;4.00;;;;;31.33;21.26;99768.16;6166217;28;97416;-62
2021/09/06 10:36:31;;;;;;;;;3.80;3.20;;;;;31.36;22.36;99767.50;6146608;28;98557;-63
2021/09/06 10:39:45;;;;;;;;;4.00;4.00;;;;;31.67;21.12;99769.91;6152091;28;97439;-61
2021/09/06 10:42:49;;;;;;;;;4.20;4.00;;;;;32.08;21.72;99767.09;6166291;28;97504;-64
2021/09/06 10:45:55;;;;;;;;;4.60;3.60;;;;;32.10;19.50;99766.75;6165693;28;96559;-59
2021/09/06 10:49:04;;;;;;;;;4.00;3.00;;;;;32.02;19.92;99762.06;6166835;28;97450;-62
2021/09/06 10:52:14;;;;;;;;;2.40;2.40;;;;;31.63;19.33;99760.59;6169906;28;96629;-61
2021/09/06 10:55:20;;;;;;;;;2.00;2.00;;;;;31.51;18.16;99755.75;6169471;28;97385;-62
2021/09/06 10:58:26;;;;;;;;;2.00;2.00;;;;;31.06;18.02;99752.78;6170312;28;97077;-62
2021/09/06 11:01:36;;;;;;;;;3.00;2.75;;;;;30.94;19.14;99759.03;6181237;28;97275;-63
2021/09/06 11:04:41;;;;;;;;;3.00;2.00;;;;;31.09;19.12;99751.28;6179118;28;96705;-61
2021/09/06 11:07:45;;;;;;;;;3.00;3.00;;;;;31.15;18.72;99747.16;6174280;28;97239;-61
2021/09/06 11:10:49;;;;;;;;;2.00;2.00;;;;;31.19;19.38;99748.91;6176436;28;97433;-63
2021/09/06 11:13:53;;;;;;;;;3.60;3.60;;;;;31.44;18.07;99765.78;6178610;28;96992;-63
2021/09/06 11:16:58;;;;;;;;;2.00;2.00;;;;;31.05;18.06;99750.31;6180363;28;96875;-60
2021/09/06 11:20:04;;;;;;;;;2.20;2.20;;;;;31.08;19.61;99752.44;6180313;28;96544;-60
2021/09/06 11:23:10;;;;;;;;;3.00;3.00;;;;;31.56;19.80;99741.66;6176939;28;97444;-61
2021/09/06 11:26:23;;;;;;;;;2.00;2.00;;;;;31.82;18.64;99746.97;6179192;28;96619;-61
2021/09/06 11:29:29;;;;;;;;;3.50;3.00;;;;;31.94;19.39;99741.47;6142353;28;96732;-63
2021/09/06 11:32:34;;;;;;;;;3.40;3.00;;;;;32.28;19.99;99743.13;6172430;28;97470;-62
2021/09/06 11:35:38;;;;;;;;;3.00;3.00;;;;;31.88;18.69;99734.47;6174916;28;97556;-62
2021/09/06 11:38:42;;;;;;;;;2.20;2.20;;;;;32.00;19.98;99742.88;6169141;28;97503;-61
2021/09/06 11:41:45;;;;;;;;;4.00;4.00;;;;;31.79;18.29;99734.56;6147470;28;96859;-62
2021/09/06 11:44:53;;;;;;;;;3.00;2.20;;;;;31.90;19.50;99729.38;6149147;28;98068;-62
2021/09/06 11:48:03;;;;;;;;;2.00;2.00;;;;;32.20;19.37;99718.91;6174847;28;97244;-61
2021/09/06 11:51:07;;;;;;;;;5.00;4.00;;;;;32.75;18.71;99720.38;6164194;28;97189;-62
2021/09/06 11:54:13;;;;;;;;;3.20;3.00;;;;;33.27;18.25;99718.53;6148850;28;97795;-63
2021/09/06 11:57:24;;;;;;;;;4.00;3.00;;;;;33.55;17.58;99718.56;6166941;28;97423;-60
2021/09/06 12:00:27;;;;;;;;;3.00;3.00;;;;;33.42;17.63;99722.56;6165915;28;96615;-63
2021/09/06 12:03:33;;;;;;;;;3.00;3.00;;;;;32.82;18.43;99717.84;6164302;28;96504;-62
2021/09/06 12:06:37;;;;;;;;;3.00;3.00;;;;;32.42;19.14;99717.66;6166881;28;97044;-60
2021/09/06 12:09:41;;;;;;;;;3.00;2.50;;;;;32.33;18.61;99720.56;6166184;28;97586;-62
2021/09/06 12:12:44;;;;;;;;;4.00;3.00;;;;;32.27;18.87;99708.00;6166085;28;97508;-62
2021/09/06 12:15:55;;;;;;;;;4.00;2.20;;;;;32.25;18.14;99701.97;6165847;28;97114;-64
2021/09/06 12:19:02;;;;;;;;;3.20;3.20;;;;;31.93;18.26;99695.19;6170592;28;96617;-63
2021/09/06 12:22:13;;;;;;;;;3.00;3.00;;;;;31.55;18.13;99700.97;6169836;28;99588;-63
2021/09/06 12:25:16;;;;;;;;;3.00;3.00;;;;;31.35;18.88;99697.03;6172093;28;98129;-63
2021/09/06 12:28:20;;;;;;;;;3.00;3.00;;;;;31.15;19.26;99692.25;6164611;28;97037;-61
2021/09/06 12:31:24;;;;;;;;;3.40;3.00;;;;;30.95;19.44;99690.22;6164517;28;98054;-64
2021/09/06 12:34:30;;;;;;;;;3.00;3.00;;;;;31.02;20.52;99686.94;6166054;28;97563;-61
2021/09/06 12:37:34;;;;;;;;;4.00;3.00;;;;;31.28;18.82;99682.81;6165371;28;96555;-61
2021/09/06 12:40:37;;;;;;;;;4.00;3.75;;;;;31.10;18.93;99680.50;6171004;28;96731;-62
2021/09/06 12:43:42;;;;;;;;;3.50;3.50;;;;;30.21;18.91;99673.19;6163792;28;97803;-64
2021/09/06 12:46:45;;;;;;;;;3.00;3.00;;;;;30.06;20.35;99669.81;6164413;28;96555;-64
2021/09/06 12:49:50;;;;;;;;;5.60;5.00;;;;;30.22;20.92;99666.50;6163949;28;97060;-63
2021/09/06 12:52:54;;;;;;;;;3.40;3.40;;;;;30.37;20.00;99672.31;6159362;28;97711;-63
2021/09/06 12:55:58;;;;;;;;;3.00;3.00;;;;;30.40;19.78;99657.75;6139238;28;97103;-63
2021/09/06 12:59:02;;;;;;;;;4.00;4.00;;;;;30.51;20.41;99661.00;6122206;28;96761;-62
2021/09/06 13:02:05;;;;;;;;;3.00;3.00;;;;;30.65;20.40;99666.31;6150818;28;97434;-63
2021/09/06 13:05:12;;;;;;;;;3.00;3.00;;;;;30.73;20.88;99666.28;6146611;28;97029;-62
2021/09/06 13:08:16;;;;;;;;;4.00;4.00;;;;;30.93;20.55;99671.09;6166362;28;97484;-63
2021/09/06 13:11:19;;;;;;;;;4.00;4.00;;;;;30.91;19.73;99675.34;6162821;28;96518;-63
2021/09/06 13:14:25;;;;;;;;;3.20;3.20;;;;;30.76;19.89;99668.41;6167501;28;98739;-62
2021/09/06 13:17:29;;;;;;;;;3.60;3.60;;;;;30.83;20.31;99665.91;6156558;28;97827;-62
2021/09/06 13:20:33;;;;;;;;;3.00;3.00;;;;;30.82;20.72;99669.84;6158214;28;96484;-62
2021/09/06 13:23:37;;;;;;;;;4.00;4.00;;;;;30.91;20.06;99667.00;6153018;28;96795;-63
2021/09/06 13:26:41;;;;;;;;;3.00;3.00;;;;;30.95;20.68;99667.94;6157628;28;96511;-63
2021/09/06 13:29:44;;;;;;;;;3.00;3.00;;;;;31.06;19.88;99666.44;6171266;28;97531;-63
2021/09/06 13:32:47;;;;;;;;;6.00;5.00;;;;;30.76;20.66;99662.81;6167276;28;96661;-63
2021/09/06 13:35:52;;;;;;;;;4.00;4.00;;;;;30.64;20.61;99670.28;6146605;28;98150;-64
2021/09/06 13:38:57;;;;;;;;;4.40;4.00;;;;;30.31;21.00;99659.75;6168874;28;97444;-62
2021/09/06 13:42:01;;;;;;;;;3.75;3.00;;;;;30.02;20.78;99654.94;6149754;28;97757;-64
2021/09/06 13:45:05;;;;;;;;;4.60;4.00;;;;;29.98;22.23;99658.72;6170612;28;96611;-61
2021/09/06 13:48:08;;;;;;;;;4.00;3.80;;;;;30.11;21.24;99655.72;6166018;28;97587;-62
2021/09/06 13:51:13;;;;;;;;;5.00;4.00;;;;;30.24;21.63;99647.53;6178020;28;96959;-64
2021/09/06 13:54:18;;;;;;;;;4.00;3.50;;;;;29.85;20.97;99651.38;6155257;28;97063;-65
2021/09/06 13:57:22;;;;;;;;;4.60;4.00;;;;;29.54;21.15;99651.59;6188200;28;96620;-63
2021/09/06 14:00:25;;;;;;;;;3.00;3.00;;;;;29.40;22.68;99653.72;6187879;28;97441;-64
2021/09/06 14:03:29;;;;;;;;;4.00;4.00;;;;;29.49;23.02;99655.34;6177911;28;97082;-62
2021/09/06 14:06:35;;;;;;;;;3.80;3.00;;;;;29.39;22.85;99655.69;6182791;28;98664;-62
2021/09/06 14:09:38;;;;;;;;;6.40;5.00;;;;;29.12;21.32;99659.59;6147613;28;98012;-64
2021/09/06 14:12:42;;;;;;;;;4.00;4.00;;;;;28.87;21.80;99660.34;6165209;28;97426;-63
2021/09/06 14:15:45;;;;;;;;;4.00;3.60;;;;;28.98;23.06;99656.09;6164878;28;97154;-63
2021/09/06 14:18:48;;;;;;;;;4.20;3.60;;;;;29.28;22.57;99654.34;6164110;28;97405;-63
2021/09/06 14:21:53;;;;;;;;;4.80;4.80;;;;;29.40;21.93;99657.31;6148318;28;96986;-61
2021/09/06 14:24:56;;;;;;;;;5.00;4.00;;;;;29.36;21.87;99650.78;6166165;28;98120;-63
2021/09/06 14:28:00;;;;;;;;;3.00;3.00;;;;;29.22;21.46;99645.34;6165366;28;97096;-63
2021/09/06 14:31:03;;;;;;;;;4.60;4.60;;;;;28.69;22.19;99653.09;6164642;28;97990;-63
2021/09/06 14:34:07;;;;;;;;;4.00;4.00;;;;;28.59;22.78;99643.09;6166433;28;97040;-62
2021/09/06 14:37:13;;;;;;;;;3.00;3.00;;;;;28.58;23.48;99637.91;6147042;28;97074;-62
2021/09/06 14:40:16;;;;;;;;;4.00;4.00;;;;;28.46;21.97;99610.78;6164963;28;97230;-63
2021/09/06 14:43:20;;;;;;;;;5.00;5.00;;;;;28.55;23.61;99641.28;6166493;28;96618;-61
2021/09/06 14:46:44;;;;;;;;;4.00;4.00;;;;;28.36;22.33;99630.47;6164196;28;97475;-63
2021/09/06 14:49:48;;;;;;;;;6.00;5.40;;;;;28.46;22.74;99634.91;6176167;28;96769;-63
2021/09/06 14:52:53;;;;;;;;;4.00;4.00;;;;;28.54;23.03;99634.13;6165788;28;97254;-63
2021/09/06 14:55:56;;;;;;;;;2.40;2.40;;;;;28.48;22.71;99633.47;6164679;28;96632;-63
2021/09/06 14:58:59;;;;;;;;;4.00;4.00;;;;;28.52;22.84;99634.44;6164250;28;97477;-63
2021/09/06 15:02:03;;;;;;;;;2.80;2.80;;;;;28.60;22.23;99636.41;6178274;28;96475;-63
2021/09/06 15:05:08;;;;;;;;;5.00;4.00;;;;;28.66;22.39;99632.38;6164159;28;96581;-63
2021/09/06 15:08:15;;;;;;;;;3.00;3.00;;;;;28.76;22.03;99637.63;6142683;28;97808;-60
2021/09/06 15:11:20;;;;;;;;;3.00;3.00;;;;;28.65;21.65;99639.06;6165320;28;97481;-62
2021/09/06 15:14:23;;;;;;;;;4.00;3.00;;;;;28.62;21.86;99641.66;6165716;28;96598;-61
2021/09/06 15:17:27;;;;;;;;;4.00;3.75;;;;;28.58;21.39;99633.16;6147197;28;96825;-61
2021/09/06 15:20:30;;;;;;;;;4.00;4.00;;;;;28.32;21.37;99627.53;6165280;28;98081;-61
2021/09/06 15:23:35;;;;;;;;;3.00;3.00;;;;;28.13;22.51;99626.97;6166016;28;97707;-63
2021/09/06 15:26:40;;;;;;;;;4.00;3.00;;;;;27.91;22.08;99616.72;6166919;28;97484;-61
2021/09/06 15:30:13;;;;;;;;;4.25;4.00;;;;;27.87;22.15;99626.00;6143238;28;96580;-62
2021/09/06 15:33:18;;;;;;;;;3.00;3.00;;;;;27.78;22.62;99617.63;6139075;28;97170;-62
2021/09/06 15:36:21;;;;;;;;;2.00;2.00;;;;;27.63;22.26;99619.97;6145344;28;97968;-62
2021/09/06 15:39:28;;;;;;;;;3.00;3.00;;;;;27.52;22.96;99611.94;6165216;28;96478;-61
2021/09/06 15:42:35;;;;;;;;;4.00;3.00;;;;;27.45;23.51;99617.06;6163744;28;96793;-62
2021/09/06 15:45:39;;;;;;;;;3.00;3.00;;;;;27.32;24.28;99611.59;6147121;28;97681;-63
2021/09/06 15:48:43;;;;;;;;;3.25;3.25;;;;;27.13;24.62;99612.59;6165678;28;97530;-61
2021/09/06 15:51:47;;;;;;;;;3.50;3.50;;;;;26.91;24.83;99598.72;6165885;28;96962;-62
2021/09/06 15:54:52;;;;;;;;;4.00;3.00;;;;;26.67;25.74;99601.72;6163510;28;96611;-62
2021/09/06 15:57:55;;;;;;;;;3.00;3.00;;;;;26.53;25.50;99605.66;6130443;28;100323;-61
2021/09/06 16:01:18;;;;;;;;;3.00;2.40;;;;;26.31;25.85;99606.38;6147373;28;97010;-62
2021/09/06 16:04:22;;;;;;;;;4.00;3.40;;;;;26.04;27.11;99596.13;6129659;28;97671;-61
2021/09/06 16:07:25;;;;;;;;;5.00;5.00;;;;;25.84;26.91;99596.50;6146513;28;96615;-61
2021/09/06 16:10:29;;;;;;;;;4.00;3.60;;;;;25.61;27.31;99590.00;6166922;28;97040;-62
2021/09/06 16:13:34;;;;;;;;;4.00;3.00;;;;;25.35;27.60;99586.84;6163977;28;96501;-63
2021/09/06 16:16:38;;;;;;;;;2.75;2.75;;;;;25.28;27.85;99596.63;6164031;28;97541;-62
2021/09/06 16:19:44;;;;;;;;;5.00;4.00;;;;;25.15;28.37;99594.63;6174036;28;97002;-62
2021/09/06 16:22:48;;;;;;;;;3.60;3.60;;;;;25.06;28.68;99596.44;6174558;28;97013;-63
2021/09/06 16:25:52;;;;;;;;;4.00;4.00;;;;;24.99;29.03;99591.28;6135090;28;96853;-61
2021/09/06 16:28:56;;;;;;;;;4.00;4.00;;;;;24.91;29.13;99589.22;6154669;28;96829;-62
2021/09/06 16:31:59;;;;;;;;;5.00;5.00;;;;;24.88;29.17;99604.41;6164164;28;96573;-63
2021/09/06 16:35:03;;;;;;;;;5.00;5.00;;;;;24.85;29.02;99602.22;6164390;28;96762;-62
2021/09/06 16:38:06;;;;;;;;;4.00;4.00;;;;;24.77;29.81;99605.66;6164305;28;96694;-63